Time;durP1;ratioP1;P1;durP2;ratioP2;P2;SDS_P1;SDS_P2;PMS_P1;PMS_P2;Temp;Humidity;BMP_temperature;BMP_pressure;BME280_temperature;BME280_humidity;BME280_pressure;Samples;Min_cycle;Max_cycle;Signal;HPM_P1;HPM_P2
2022/10/06 00:03:01;;;;;;;7.30;1.30;;;;;;;19.75;100.00;98578.59;5783421;24;20018;-93
2022/10/06 00:09:32;;;;;;;5.10;1.00;;;;;;;22.76;100.00;98598.34;5839313;24;20029;-94
2022/10/06 00:12:15;;;;;;;8.93;1.33;;;;;;;19.94;100.00;98601.50;5841089;24;20714;-92
2022/10/06 00:15:23;;;;;;;9.15;1.63;;;;;;;19.76;100.00;98582.94;5863536;24;20024;-93
2022/10/06 00:21:18;;;;;;;6.57;1.13;;;;;;;19.37;100.00;98602.47;5866905;24;20495;-93
2022/10/06 00:27:56;;;;;;;7.63;1.02;;;;;;;19.81;100.00;98589.84;5920921;24;20458;-93
2022/10/06 00:30:54;;;;;;;11.13;1.42;;;;;;;19.64;100.00;98596.78;5927952;24;20035;-94
2022/10/06 00:33:41;;;;;;;9.15;0.90;;;;;;;19.13;100.00;98593.06;5948023;24;20096;-93
2022/10/06 00:40:22;;;;;;;8.63;1.33;;;;;;;19.96;100.00;98589.06;5948121;24;20048;-91
2022/10/06 00:43:00;;;;;;;7.85;1.25;;;;;;;20.28;100.00;98603.31;5980639;23;20007;-94
2022/10/06 00:48:37;;;;;;;11.30;1.38;;;;;;;18.00;100.00;98606.75;6033537;23;20098;-93
2022/10/06 00:51:04;;;;;;;7.57;1.73;;;;;;;18.67;100.00;98617.97;6032461;23;20050;-92
2022/10/06 00:53:56;;;;;;;10.00;1.42;;;;;;;18.92;100.00;98619.53;6030611;23;20442;-92
2022/10/06 00:56:38;;;;;;;;;;;;;;;;;;;;;
2022/10/06 00:59:17;;;;;;;6.30;1.27;;;;;;;19.62;100.00;98630.38;6001193;23;20021;-93
2022/10/06 01:02:31;;;;;;;7.85;1.10;;;;;;;17.52;100.00;98628.88;6002989;23;20026;-93
2022/10/06 01:05:05;;;;;;;8.82;1.15;;;;;;;19.08;100.00;98619.69;5997274;23;20020;-93
2022/10/06 01:11:33;;;;;;;8.45;1.20;;;;;;;18.99;100.00;98643.91;5972886;24;20016;-91
2022/10/06 01:15:01;;;;;;;10.63;1.50;;;;;;;19.19;100.00;98643.84;5993385;23;20018;-92
2022/10/06 01:21:48;;;;;;;7.00;1.05;;;;;;;19.30;100.00;98658.34;5947300;24;20092;-93
2022/10/06 01:24:54;;;;;;;5.90;1.10;;;;;;;18.46;100.00;98661.16;5946590;24;20301;-93
2022/10/06 01:27:39;;;;;;;7.65;1.25;;;;;;;18.08;100.00;98662.72;5891802;24;20028;-92
2022/10/06 01:31:03;;;;;;;9.85;1.17;;;;;;;18.29;100.00;98680.34;5867249;24;20009;-92
2022/10/06 01:33:48;;;;;;;;;;;;;;;;;;;;;
2022/10/06 01:37:27;;;;;;;9.52;1.10;;;;;;;19.59;100.00;98665.75;5877565;24;20095;-92
2022/10/06 01:43:27;;;;;;;9.38;1.38;;;;;;;20.06;100.00;98680.31;5919583;24;20095;-91
2022/10/06 01:47:13;;;;;;;8.40;1.20;;;;;;;18.40;100.00;98691.34;5920317;24;20104;-91
2022/10/06 01:54:20;;;;;;;11.55;1.77;;;;;;;19.20;100.00;98695.78;5844882;24;20010;-93
2022/10/06 01:57:20;;;;;;;12.50;1.75;;;;;;;19.02;100.00;98688.69;5891202;24;20017;-93
2022/10/06 02:02:36;;;;;;;6.95;1.00;;;;;;;16.41;100.00;98701.38;6236779;22;20020;-96
2022/10/06 02:05:03;;;;;;;10.88;1.50;;;;;;;16.86;100.00;98680.50;6240537;23;20081;-95
2022/10/06 02:07:28;;;;;;;7.72;1.20;;;;;;;17.47;100.00;98696.78;6241087;23;20004;-96
2022/10/06 02:09:54;;;;;;;13.05;1.10;;;;;;;19.19;100.00;98685.28;6243318;22;20000;-96
2022/10/06 02:12:19;;;;;;;9.95;1.20;;;;;;;18.28;100.00;98692.69;6243748;23;20523;-96
2022/10/06 02:14:53;;;;;;;8.90;1.38;;;;;;;18.91;100.00;98676.81;6241938;23;20493;-96
2022/10/06 02:17:25;;;;;;;9.13;1.63;;;;;;;18.57;100.00;98685.31;6243216;23;20008;-95
2022/10/06 02:19:58;;;;;;;14.25;1.92;;;;;;;18.93;100.00;98689.97;6242673;23;20008;-95
2022/10/06 02:22:24;;;;;;;24.17;1.80;;;;;;;19.25;100.00;98680.56;6243520;23;20008;-94
2022/10/06 02:24:50;;;;;;;10.45;1.48;;;;;;;18.59;100.00;98689.63;6243405;23;20004;-94
2022/10/06 02:27:15;;;;;;;6.40;1.40;;;;;;;17.88;100.00;98696.91;6244991;23;20016;-94
2022/10/06 02:29:41;;;;;;;12.13;1.70;;;;;;;18.02;100.00;98715.75;6243677;23;20565;-95
2022/10/06 02:32:07;;;;;;;12.18;1.40;;;;;;;15.73;100.00;98700.91;6243254;23;20065;-96
2022/10/06 02:34:33;;;;;;;9.60;1.25;;;;;;;16.80;100.00;98709.69;6243113;23;20008;-96
2022/10/06 02:37:11;;;;;;;14.55;1.65;;;;;;;19.56;100.00;98694.16;6243735;23;20456;-95
2022/10/06 02:39:41;;;;;;;12.55;1.40;;;;;;;19.22;100.00;98693.94;6243129;23;20125;-96
2022/10/06 02:42:06;;;;;;;12.23;1.98;;;;;;;18.77;100.00;98697.66;6242756;23;20008;-96
2022/10/06 02:44:32;;;;;;;8.02;1.27;;;;;;;19.20;100.00;98697.56;6244422;23;20016;-95
2022/10/06 02:47:18;;;;;;;7.10;1.27;;;;;;;18.67;100.00;98691.06;6242739;23;20034;-95
2022/10/06 02:49:47;;;;;;;11.50;1.55;;;;;;;20.24;100.00;98696.25;6243876;23;20471;-96
2022/10/06 02:52:16;;;;;;;11.18;1.30;;;;;;;16.90;100.00;98712.91;6244559;23;20058;-94
2022/10/06 02:54:53;;;;;;;10.10;1.65;;;;;;;18.74;100.00;98701.28;6240384;23;20004;-96
2022/10/06 02:57:21;;;;;;;7.35;1.30;;;;;;;19.16;100.00;98707.41;6242754;23;20004;-95
2022/10/06 02:59:46;;;;;;;9.38;1.63;;;;;;;18.55;100.00;98710.94;6240880;23;20063;-96
2022/10/06 03:02:12;;;;;;;10.70;1.73;;;;;;;19.29;100.00;98697.16;6243796;23;20104;-95
2022/10/06 03:04:37;;;;;;;9.95;1.90;;;;;;;18.13;100.00;98696.81;6241911;23;20004;-95
2022/10/06 03:07:03;;;;;;;7.35;1.40;;;;;;;19.53;100.00;98695.16;6243600;23;20433;-94
2022/10/06 03:09:36;;;;;;;12.40;1.77;;;;;;;19.85;100.00;98698.09;6242648;23;20464;-96
2022/10/06 03:12:01;;;;;;;14.05;2.05;;;;;;;18.82;100.00;98695.69;6242831;23;20062;-95
2022/10/06 03:14:27;;;;;;;16.23;2.20;;;;;;;18.90;100.00;98698.88;6243411;23;20005;-96
2022/10/06 03:16:55;;;;;;;14.38;1.92;;;;;;;18.82;100.00;98705.41;6244765;22;20024;-96
2022/10/06 03:19:24;;;;;;;12.32;1.55;;;;;;;17.86;100.00;98711.97;6242143;23;20592;-95
2022/10/06 03:21:49;;;;;;;13.77;1.92;;;;;;;18.15;100.00;98716.09;6242261;23;20016;-96
2022/10/06 03:24:15;;;;;;;10.25;1.88;;;;;;;19.12;100.00;98718.22;6242608;23;20675;-94
2022/10/06 03:26:43;;;;;;;14.90;1.98;;;;;;;19.73;100.00;98738.34;6242080;22;20315;-95
2022/10/06 03:29:12;;;;;;;9.73;1.52;;;;;;;19.20;100.00;98716.94;6243445;23;20299;-95
2022/10/06 03:31:47;;;;;;;12.43;1.60;;;;;;;19.10;100.00;98727.06;6243407;23;20035;-95
2022/10/06 03:34:14;;;;;;;18.98;1.50;;;;;;;18.28;100.00;98729.66;6242943;23;20210;-93
2022/10/06 03:36:40;;;;;;;11.60;1.50;;;;;;;19.39;100.00;98721.41;6242744;23;20082;-95
2022/10/06 03:39:06;;;;;;;13.82;1.77;;;;;;;18.83;100.00;98707.09;6244658;23;20016;-95
2022/10/06 03:41:37;;;;;;;13.02;1.92;;;;;;;17.74;100.00;98735.28;6245644;23;20020;-94
2022/10/06 03:44:04;;;;;;;10.57;1.70;;;;;;;18.30;100.00;98738.38;6245546;23;20087;-96
2022/10/06 03:46:37;;;;;;;12.57;1.55;;;;;;;18.35;100.00;98719.69;6242941;23;20012;-95
2022/10/06 03:49:04;;;;;;;7.88;1.33;;;;;;;17.77;100.00;98725.50;6244456;23;20004;-95
2022/10/06 03:51:47;;;;;;;14.00;2.53;;;;;;;19.34;100.00;98726.03;6243964;23;20042;-95
2022/10/06 03:54:13;;;;;;;;;;;;;;;18.71;100.00;98743.69;6245960;22;20087;-95
2022/10/06 03:56:44;;;;;;;12.45;1.50;;;;;;;18.86;100.00;98731.63;6244030;23;19911;-95
2022/10/06 03:59:16;;;;;;;9.85;1.60;;;;;;;18.58;100.00;98742.53;6244602;23;20074;-96
2022/10/06 04:01:47;;;;;;;13.75;1.67;;;;;;;20.64;100.00;98732.19;6244957;23;20023;-96
2022/10/06 04:04:28;;;;;;;11.75;1.80;;;;;;;20.21;100.00;98749.31;6246291;23;20008;-94
2022/10/06 04:06:53;;;;;;;11.18;1.63;;;;;;;20.02;100.00;98758.16;6245627;23;20003;-95
2022/10/06 04:09:19;;;;;;;13.35;1.63;;;;;;;19.70;100.00;98752.56;6245337;23;20008;-95
2022/10/06 04:11:54;;;;;;;11.32;1.45;;;;;;;18.08;100.00;98757.72;6244123;23;20032;-94
2022/10/06 04:14:20;;;;;;;12.32;1.77;;;;;;;16.96;100.00;98749.53;6244999;23;20102;-96
2022/10/06 04:16:52;;;;;;;11.02;1.48;;;;;;;18.64;100.00;98778.38;6244898;23;20087;-96
2022/10/06 04:19:18;;;;;;;16.23;1.65;;;;;;;19.43;100.00;98765.28;6244841;23;20004;-94
2022/10/06 04:21:50;;;;;;;14.63;2.08;;;;;;;18.30;100.00;98779.75;6244783;23;20011;-95
2022/10/06 04:24:31;;;;;;;14.18;1.90;;;;;;;19.72;100.00;98763.97;6244210;23;20012;-96
2022/10/06 04:27:26;;;;;;;9.90;1.88;;;;;;;18.69;100.00;98800.16;6242738;23;20016;-95
2022/10/06 04:29:46;;;;;;;14.98;1.85;;;;;;;19.54;100.00;98775.38;6245104;23;20004;-95
2022/10/06 04:32:34;;;;;;;15.45;1.90;;;;;;;17.88;100.00;98791.91;6245940;23;20078;-95
2022/10/06 04:35:00;;;;;;;12.43;1.50;;;;;;;19.03;100.00;98782.91;6244468;23;20035;-95
2022/10/06 04:37:27;;;;;;;14.73;1.70;;;;;;;19.10;100.00;98797.59;6244969;22;20461;-94
2022/10/06 04:39:52;;;;;;;10.75;1.88;;;;;;;18.77;100.00;98788.38;6244401;23;20095;-95
2022/10/06 04:42:18;;;;;;;13.32;2.08;;;;;;;19.36;100.00;98788.50;6244999;23;20023;-96
2022/10/06 04:44:43;;;;;;;12.00;1.70;;;;;;;18.37;100.00;98789.13;6245663;23;20071;-96
2022/10/06 04:47:24;;;;;;;15.00;1.90;;;;;;;19.06;100.00;98785.44;6245663;23;20004;-96
2022/10/06 04:49:53;;;;;;;11.65;1.73;;;;;;;19.10;100.00;98785.22;6244648;23;20069;-96
2022/10/06 04:52:22;;;;;;;14.88;1.60;;;;;;;19.87;100.00;98788.00;6247211;22;20078;-96
2022/10/06 04:54:50;;;;;;;9.43;1.92;;;;;;;19.36;100.00;98785.00;6246930;22;20103;-95
2022/10/06 04:57:15;;;;;;;9.50;1.80;;;;;;;19.48;100.00;98786.25;6244243;23;20095;-96
2022/10/06 05:02:28;;;;;;;13.93;1.90;;;;;;;19.81;100.00;98805.03;6247253;23;20058;-94
2022/10/06 05:04:53;;;;;;;9.18;1.67;;;;;;;21.10;100.00;98810.31;6245793;23;20012;-96
2022/10/06 05:07:23;;;;;;;13.32;2.08;;;;;;;20.78;100.00;98808.38;6245839;23;20083;-96
2022/10/06 05:09:58;;;;;;;12.70;2.03;;;;;;;18.56;100.00;98820.94;6245248;23;20008;-96
2022/10/06 05:12:24;;;;;;;16.85;2.17;;;;;;;18.12;100.00;98821.81;6245017;23;20091;-93
2022/10/06 05:14:49;;;;;;;13.48;2.75;;;;;;;17.51;100.00;98814.41;6244952;23;20134;-95
2022/10/06 05:17:20;;;;;;;15.20;1.90;;;;;;;17.56;100.00;98810.66;6245165;23;20004;-95
2022/10/06 05:19:50;;;;;;;12.02;2.15;;;;;;;18.07;100.00;98821.97;6245526;23;20018;-95
2022/10/06 05:22:15;;;;;;;12.48;1.60;;;;;;;18.91;100.00;98818.66;6246299;23;20015;-95
2022/10/06 05:24:52;;;;;;;9.30;1.55;;;;;;;18.51;100.00;98839.63;6241025;23;20008;-96
2022/10/06 05:27:19;;;;;;;11.20;1.45;;;;;;;18.74;100.00;98827.25;6239293;23;20022;-95
2022/10/06 05:29:59;;;;;;;12.45;2.15;;;;;;;19.03;100.00;98820.78;6238499;23;20012;-96
2022/10/06 05:32:24;;;;;;;10.27;1.83;;;;;;;18.81;100.00;98818.16;6242826;22;20146;-95
2022/10/06 05:35:04;;;;;;;15.35;1.77;;;;;;;19.73;100.00;98826.50;6240368;23;20008;-96
2022/10/06 05:37:32;;;;;;;12.68;1.92;;;;;;;19.30;100.00;98836.38;6234088;23;20072;-96
2022/10/06 05:40:12;;;;;;;20.13;2.08;;;;;;;19.60;100.00;98813.00;6242950;23;20004;-96
2022/10/06 05:42:56;;;;;;;13.98;1.85;;;;;;;21.69;100.00;98839.97;6242794;23;20726;-96
2022/10/06 05:45:28;;;;;;;10.15;2.10;;;;;;;20.20;100.00;98835.03;6239434;23;20004;-95
2022/10/06 05:48:05;;;;;;;13.18;1.98;;;;;;;19.82;100.00;98837.63;6241799;23;20107;-96
2022/10/06 05:50:43;;;;;;;10.95;1.83;;;;;;;19.38;100.00;98850.09;6241802;23;20003;-96
2022/10/06 05:53:42;;;;;;;11.98;1.67;;;;;;;19.63;100.00;98842.91;6240229;23;20019;-95
2022/10/06 05:56:24;;;;;;;12.90;1.88;;;;;;;19.48;100.00;98829.41;6240689;23;20480;-96
2022/10/06 05:59:16;;;;;;;16.92;1.90;;;;;;;20.70;100.00;98850.28;6241014;23;20027;-96
2022/10/06 06:01:45;;;;;;;15.75;2.22;;;;;;;19.81;100.00;98854.47;6239100;23;20114;-95
2022/10/06 06:04:12;;;;;;;13.50;1.75;;;;;;;20.08;100.00;98852.31;6243617;23;20020;-95
2022/10/06 06:07:00;;;;;;;18.42;2.22;;;;;;;19.09;100.00;98865.47;6244708;23;20000;-95
2022/10/06 06:09:34;;;;;;;11.68;1.90;;;;;;;18.58;100.00;98879.88;6224142;23;20083;-96
2022/10/06 06:12:15;;;;;;;13.30;1.80;;;;;;;19.55;100.00;98867.88;6241018;23;20027;-96
2022/10/06 06:17:34;;;;;;;12.48;1.90;;;;;;;18.46;100.00;98867.13;6245953;23;20015;-95
2022/10/06 06:20:09;;;;;;;12.73;1.85;;;;;;;18.92;100.00;98867.94;6244323;23;20016;-96
2022/10/06 06:22:57;;;;;;;12.70;1.88;;;;;;;17.62;100.00;98857.06;6244364;23;20059;-95
2022/10/06 06:25:36;;;;;;;13.05;1.80;;;;;;;17.06;100.00;98871.28;6240612;23;20020;-94
2022/10/06 06:28:02;;;;;;;13.90;1.75;;;;;;;19.00;100.00;98871.13;6241139;23;20012;-96
2022/10/06 06:34:31;;;;;;;10.73;1.70;;;;;;;18.33;100.00;98879.94;6250656;23;20329;-96
2022/10/06 06:37:22;;;;;;;14.40;1.98;;;;;;;18.68;100.00;98875.91;6246893;22;20075;-96
2022/10/06 06:40:12;;;;;;;10.32;1.40;;;;;;;18.52;100.00;98882.72;6231343;23;20103;-96
2022/10/06 06:43:00;;;;;;;15.63;1.75;;;;;;;20.28;100.00;98875.25;6245030;23;20008;-96
2022/10/06 06:56:32;;;;;;;13.65;2.13;;;;;;;20.14;100.00;98891.78;6068096;23;20022;-96
2022/10/06 07:03:23;;;;;;;15.02;2.00;;;;;;;19.84;100.00;98896.66;6053350;23;20046;-96
2022/10/06 07:06:39;;;;;;;;;;;;;;;;;;;;;
2022/10/06 07:09:50;;;;;;;14.38;2.00;;;;;;;20.92;100.00;98907.56;6064663;23;20085;-95
2022/10/06 07:25:13;;;;;;;7.25;1.50;;;;;;;20.05;100.00;98908.91;6070734;23;20037;-96
2022/10/06 07:28:02;;;;;;;13.80;2.45;;;;;;;20.57;100.00;98934.78;6066431;23;20010;-96
2022/10/06 07:31:02;;;;;;;12.90;1.80;;;;;;;20.22;100.00;98928.47;6074937;23;20010;-96
2022/10/06 07:34:16;;;;;;;12.02;1.75;;;;;;;20.90;100.00;98925.31;6250695;23;20437;-96
2022/10/06 07:37:42;;;;;;;15.20;2.20;;;;;;;20.13;100.00;98933.25;6250939;23;20091;-96
2022/10/06 07:41:11;;;;;;;;;;;;;;;;;;;;;
2022/10/06 07:44:09;;;;;;;;;;;;;;;;;;;;;
2022/10/06 07:47:14;;;;;;;13.93;2.10;;;;;;;20.16;100.00;98920.81;6249264;22;20035;-96
2022/10/06 07:50:28;;;;;;;12.57;1.98;;;;;;;20.80;100.00;98915.16;6248398;22;20008;-96
2022/10/06 07:53:34;;;;;;;14.85;2.47;;;;;;;20.01;100.00;98936.47;6241903;23;20000;-96
2022/10/06 07:56:16;;;;;;;15.05;2.90;;;;;;;20.28;100.00;98910.53;6236489;23;20012;-96
2022/10/06 07:59:01;;;;;;;14.48;2.20;;;;;;;21.34;100.00;98914.28;6259960;23;20000;-96
2022/10/06 08:04:39;;;;;;;13.00;2.05;;;;;;;21.14;100.00;98926.75;6166312;23;20028;-95
2022/10/06 08:08:13;;;;;;;13.93;1.95;;;;;;;20.76;100.00;98916.22;6194370;23;20017;-96
2022/10/06 08:11:21;;;;;;;15.38;2.08;;;;;;;20.70;100.00;98934.25;6077914;23;20007;-96
2022/10/06 08:14:21;;;;;;;15.38;2.22;;;;;;;21.02;100.00;98929.19;6082897;23;20035;-96
2022/10/06 08:23:07;;;;;;;15.98;2.90;;;;;;;21.45;100.00;98941.13;6257414;23;20012;-96
2022/10/06 08:32:04;;;;;;;13.98;2.00;;;;;;;20.64;100.00;98930.91;6245793;23;20068;-96
2022/10/06 08:37:51;;;;;;;;;;;;;;;;;;;;;
2022/10/06 08:40:31;;;;;;;16.60;2.50;;;;;;;21.03;100.00;98931.75;6234543;23;20079;-96
2022/10/06 08:43:18;;;;;;;15.00;2.28;;;;;;;21.39;100.00;98933.50;6218708;23;20012;-96
2022/10/06 08:49:23;;;;;;;16.05;2.63;;;;;;;21.44;100.00;98931.44;6100288;23;20026;-96
2022/10/06 08:52:32;;;;;;;16.02;1.92;;;;;;;21.53;100.00;98940.78;6074544;23;20018;-96
2022/10/06 08:55:26;;;;;;;16.27;2.20;;;;;;;20.80;100.00;98964.66;6092588;23;20014;-96
2022/10/06 08:58:29;;;;;;;12.20;2.10;;;;;;;20.94;100.00;98958.69;6069133;23;20433;-96
2022/10/06 09:01:24;;;;;;;20.20;2.70;;;;;;;22.30;100.00;98951.81;6099417;23;20010;-96
2022/10/06 09:03:53;;;;;;;12.45;1.90;;;;;;;23.41;100.00;98950.97;6067155;23;21007;-95
2022/10/06 09:06:58;;;;;;;14.88;2.08;;;;;;;22.83;100.00;98940.03;6091442;23;20014;-96
2022/10/06 09:10:15;;;;;;;16.77;2.42;;;;;;;24.44;100.00;98962.50;6066998;23;20010;-96
2022/10/06 09:13:01;;;;;;;17.83;2.33;;;;;;;25.08;100.00;98951.34;6065188;23;20014;-95
2022/10/06 09:19:24;;;;;;;20.08;2.67;;;;;;;23.58;100.00;98975.72;5946296;24;20060;-95
2022/10/06 09:21:52;;;;;;;16.88;2.15;;;;;;;24.96;100.00;98977.00;5943165;24;20196;-94
2022/10/06 09:24:59;;;;;;;19.30;2.97;;;;;;;26.18;97.42;98981.38;5945218;24;20020;-94
2022/10/06 09:27:49;;;;;;;16.55;2.40;;;;;;;24.64;100.00;98987.09;6085268;23;20117;-94
2022/10/06 09:30:18;;;;;;;19.13;2.65;;;;;;;23.41;100.00;98982.91;6087432;23;20022;-94
2022/10/06 09:32:59;;;;;;;13.77;2.20;;;;;;;24.16;100.00;98998.88;6084984;23;20097;-95
2022/10/06 09:35:31;;;;;;;12.57;2.22;;;;;;;22.50;100.00;98993.28;6086442;23;20049;-92
2022/10/06 09:38:02;;;;;;;14.38;2.33;;;;;;;23.56;100.00;98998.91;6085471;23;20185;-95
2022/10/06 09:40:50;;;;;;;18.58;2.85;;;;;;;22.38;100.00;99013.41;6086933;23;20019;-93
2022/10/06 09:43:21;;;;;;;12.50;2.05;;;;;;;22.33;100.00;99013.63;6064370;23;20014;-94
2022/10/06 09:45:50;;;;;;;18.13;2.33;;;;;;;22.52;100.00;99004.69;6087656;23;20054;-94
2022/10/06 09:48:33;;;;;;;17.13;2.58;;;;;;;25.59;100.00;99005.88;6088148;23;20014;-93
2022/10/06 09:51:16;;;;;;;;;;;;;;;24.58;100.00;99014.09;6086853;23;20141;-93
2022/10/06 09:54:13;;;;;;;12.25;2.38;;;;;;;23.88;100.00;99012.16;6185173;23;19958;-94
2022/10/06 09:56:41;;;;;;;16.88;2.67;;;;;;;24.68;100.00;99009.94;6210355;23;20023;-93
2022/10/06 09:59:44;;;;;;;14.15;2.08;;;;;;;24.47;100.00;99006.78;6213384;23;20015;-93
2022/10/06 10:02:41;;;;;;;14.63;2.30;;;;;;;24.49;100.00;99012.88;6091044;23;20006;-93
2022/10/06 10:05:24;;;;;;;15.85;2.90;;;;;;;24.38;100.00;99010.84;6117246;23;20012;-94
2022/10/06 10:08:33;;;;;;;12.43;1.90;;;;;;;25.50;100.00;99018.03;6118272;23;20121;-93
2022/10/06 10:13:51;;;;;;;17.30;2.22;;;;;;;23.29;100.00;99015.53;6118095;23;20352;-94
2022/10/06 10:16:49;;;;;;;13.55;2.13;;;;;;;24.52;100.00;99016.22;6117870;23;20038;-94
2022/10/06 10:19:58;;;;;;;11.98;1.60;;;;;;;23.88;100.00;99009.47;5973672;23;20230;-93
2022/10/06 10:22:36;;;;;;;14.27;2.15;;;;;;;24.43;100.00;99008.78;5971276;23;20030;-94
2022/10/06 10:25:39;;;;;;;12.88;2.25;;;;;;;24.91;100.00;99016.44;5972581;24;20099;-94
2022/10/06 10:28:29;;;;;;;18.95;2.40;;;;;;;23.96;100.00;99015.22;5974355;23;20027;-93
2022/10/06 10:31:16;;;;;;;14.65;2.15;;;;;;;24.00;100.00;99009.59;5973943;23;20119;-94
2022/10/06 10:34:06;;;;;;;12.23;2.33;;;;;;;25.66;100.00;98999.16;5973392;23;20068;-94
2022/10/06 10:37:18;;;;;;;13.85;2.10;;;;;;;26.18;100.00;99002.75;5975877;23;20015;-94
2022/10/06 10:40:33;;;;;;;11.15;2.00;;;;;;;26.53;100.00;98988.72;6039701;23;20025;-94
2022/10/06 10:43:16;;;;;;;13.38;2.42;;;;;;;25.07;100.00;99007.47;6032107;23;20019;-95
2022/10/06 10:46:33;;;;;;;10.30;1.77;;;;;;;26.66;100.00;98986.03;6035981;23;20071;-94
2022/10/06 10:49:36;;;;;;;12.73;2.13;;;;;;;26.70;100.00;99009.78;5954236;23;20019;-94
2022/10/06 10:52:30;;;;;;;14.63;2.42;;;;;;;24.43;100.00;99002.59;6006068;23;20007;-95
2022/10/06 10:55:30;;;;;;;;;;;;;;;;;;;;;
2022/10/06 11:04:26;;;;;;;12.65;2.22;;;;;;;26.00;100.00;99000.38;6176701;23;20015;-94
2022/10/06 11:10:42;;;;;;;9.93;1.67;;;;;;;25.02;100.00;99016.66;6173218;23;20013;-93
2022/10/06 11:16:48;;;;;;;11.65;1.70;;;;;;;25.52;100.00;99030.31;6176702;23;20075;-94
2022/10/06 11:19:33;;;;;;;12.05;1.75;;;;;;;26.53;100.00;99029.69;6193557;23;20012;-94
2022/10/06 11:22:43;;;;;;;12.32;1.70;;;;;;;22.33;100.00;99024.25;6209131;23;20044;-95
2022/10/06 11:25:52;;;;;;;11.90;1.77;;;;;;;23.75;100.00;99028.81;6212611;23;20013;-95
2022/10/06 11:28:48;;;;;;;14.07;2.10;;;;;;;23.60;100.00;99027.91;6211259;23;20013;-96
2022/10/06 11:31:37;;;;;;;13.45;2.22;;;;;;;24.06;100.00;99031.50;6224109;23;20409;-95
2022/10/06 11:34:27;;;;;;;11.73;1.50;;;;;;;26.73;100.00;99017.59;6214534;23;20015;-96
2022/10/06 11:37:15;;;;;;;12.10;1.80;;;;;;;27.67;97.54;99044.69;6241167;23;20043;-93
2022/10/06 11:40:22;;;;;;;17.48;2.40;;;;;;;26.30;100.00;99019.78;6213898;23;20020;-93
2022/10/06 11:50:17;;;;;;;11.23;1.70;;;;;;;26.50;100.00;99000.50;6120148;23;20459;-94
2022/10/06 11:52:51;;;;;;;9.60;1.73;;;;;;;23.34;100.00;99014.31;6119610;23;20010;-95
2022/10/06 11:55:35;;;;;;;9.45;1.70;;;;;;;24.18;100.00;98983.63;6092827;23;20486;-96
2022/10/06 11:58:21;;;;;;;;;;;;;;;;;;;;;
2022/10/06 12:00:57;;;;;;;8.65;1.45;;;;;;;26.16;100.00;98996.66;6112374;23;20074;-96
2022/10/06 12:04:07;;;;;;;10.98;2.10;;;;;;;25.90;100.00;98994.81;6096817;23;20074;-95
2022/10/06 12:06:55;;;;;;;14.98;1.67;;;;;;;26.19;100.00;98986.63;6120480;23;20049;-95
2022/10/06 12:09:29;;;;;;;11.52;1.70;;;;;;;27.39;98.07;99011.94;6095740;23;20098;-93
2022/10/06 12:12:28;;;;;;;9.75;1.45;;;;;;;27.79;93.85;98988.47;6095924;23;20158;-94
2022/10/06 12:15:02;;;;;;;8.50;1.40;;;;;;;28.60;89.02;98976.75;6097277;23;20014;-94
2022/10/06 12:18:11;;;;;;;11.13;1.77;;;;;;;27.62;91.78;98993.28;6095132;23;20018;-95
2022/10/06 12:20:41;;;;;;;11.50;2.03;;;;;;;25.00;100.00;98988.34;6190110;23;20054;-96
2022/10/06 12:23:46;;;;;;;12.05;1.75;;;;;;;23.54;100.00;98985.69;6216563;23;20011;-96
2022/10/06 12:27:03;;;;;;;10.23;1.63;;;;;;;25.54;100.00;98987.50;6217240;23;20019;-95
2022/10/06 12:32:56;;;;;;;10.27;1.70;;;;;;;25.08;100.00;98988.69;6149741;23;20125;-93
2022/10/06 12:35:30;;;;;;;13.10;1.77;;;;;;;24.58;100.00;98998.09;6125551;23;20009;-94
2022/10/06 12:38:18;;;;;;;12.40;2.08;;;;;;;24.01;100.00;99000.66;6150530;23;20098;-93
2022/10/06 12:43:56;;;;;;;9.98;1.50;;;;;;;23.89;100.00;98992.56;6149743;23;20036;-93
2022/10/06 12:47:09;;;;;;;12.13;1.80;;;;;;;24.51;100.00;99005.63;6126545;23;20013;-93
2022/10/06 12:49:53;;;;;;;7.95;1.55;;;;;;;25.29;100.00;98998.91;6125852;23;20009;-94
2022/10/06 12:52:59;;;;;;;11.07;1.92;;;;;;;22.57;100.00;99009.75;6126073;23;20503;-93
2022/10/06 12:56:01;;;;;;;13.75;2.33;;;;;;;25.17;100.00;99009.44;6119395;23;20017;-93
2022/10/06 12:58:46;;;;;;;9.57;1.63;;;;;;;21.94;100.00;98998.81;6138352;23;20005;-91
2022/10/06 13:01:12;;;;;;;9.65;1.92;;;;;;;23.12;100.00;98982.75;6120876;23;20013;-92
2022/10/06 13:03:39;;;;;;;9.88;1.40;;;;;;;24.63;100.00;98977.38;6122350;23;20036;-93
2022/10/06 13:06:08;;;;;;;8.77;1.65;;;;;;;23.58;100.00;98995.22;6148790;23;20091;-92
2022/10/06 13:08:51;;;;;;;12.98;1.88;;;;;;;24.16;100.00;98998.88;6150067;23;20336;-92
2022/10/06 13:11:25;;;;;;;12.68;1.50;;;;;;;25.53;100.00;98977.75;6209964;23;20119;-93
2022/10/06 13:14:19;;;;;;;12.02;2.20;;;;;;;25.69;100.00;98974.91;6183004;23;20004;-93
2022/10/06 13:16:48;;;;;;;11.77;1.90;;;;;;;26.30;100.00;98995.69;6210449;23;20005;-92
2022/10/06 13:19:16;;;;;;;10.90;1.92;;;;;;;26.40;100.00;98975.34;6185861;23;20087;-92
2022/10/06 13:21:42;;;;;;;11.15;1.80;;;;;;;25.60;100.00;98964.88;6210054;23;20016;-93
2022/10/06 13:24:28;;;;;;;;;;;;;;;;;;;;;
2022/10/06 13:26:57;;;;;;;11.95;1.98;;;;;;;25.13;100.00;98959.03;6207986;23;20087;-93
2022/10/06 13:29:30;;;;;;;13.90;1.60;;;;;;;24.82;100.00;98958.38;6186297;23;20019;-93
2022/10/06 13:31:58;;;;;;;11.88;1.48;;;;;;;25.68;100.00;98952.69;6201785;23;20101;-93
2022/10/06 13:34:42;;;;;;;13.20;1.83;;;;;;;25.28;100.00;98944.66;6209304;23;20012;-93
2022/10/06 13:37:14;;;;;;;9.77;1.95;;;;;;;26.00;100.00;98956.75;6211913;23;20012;-93
2022/10/06 13:39:41;;;;;;;9.65;1.60;;;;;;;25.35;100.00;98942.47;6209312;23;20108;-92
2022/10/06 13:42:24;;;;;;;10.73;1.77;;;;;;;25.22;100.00;98937.94;6209839;23;20437;-94
2022/10/06 13:45:01;;;;;;;13.07;1.48;;;;;;;26.65;100.00;98944.19;6208858;23;20147;-94
2022/10/06 13:47:28;;;;;;;8.35;1.30;;;;;;;26.08;100.00;98957.09;6209316;23;20020;-93
2022/10/06 13:50:16;;;;;;;10.70;1.70;;;;;;;25.24;100.00;98956.50;6210684;23;20343;-92
2022/10/06 13:52:49;;;;;;;10.05;2.03;;;;;;;24.19;100.00;98945.38;6210614;23;20012;-94
2022/10/06 13:55:32;;;;;;;9.82;1.80;;;;;;;25.75;100.00;98955.78;6206764;23;20017;-93
2022/10/06 13:57:58;;;;;;;11.85;1.70;;;;;;;25.45;100.00;98946.22;6210572;23;20008;-94
2022/10/06 14:00:29;;;;;;;11.55;1.67;;;;;;;24.92;100.00;98955.97;6210922;23;20008;-94
2022/10/06 14:03:22;;;;;;;9.10;1.42;;;;;;;24.73;100.00;98951.81;6211481;23;20063;-93
2022/10/06 14:05:49;;;;;;;9.77;1.50;;;;;;;24.41;100.00;98936.03;6213313;23;20084;-94
2022/10/06 14:08:35;;;;;;;14.63;1.88;;;;;;;23.40;100.00;98932.41;6208724;23;20009;-94
2022/10/06 14:11:18;;;;;;;10.40;1.50;;;;;;;24.49;100.00;98944.38;6213224;23;20039;-94
2022/10/06 14:13:50;;;;;;;;;;;;;;;23.66;100.00;98958.34;6212667;23;20000;-94
2022/10/06 14:16:33;;;;;;;7.63;1.17;;;;;;;24.13;100.00;98931.56;6211296;23;19907;-93
2022/10/06 14:19:05;;;;;;;;;;;;;;;23.85;100.00;98947.44;6210194;23;20091;-93
2022/10/06 14:21:30;;;;;;;7.75;1.25;;;;;;;25.74;100.00;98956.75;6213252;23;19986;-93
2022/10/06 14:24:21;;;;;;;8.60;1.42;;;;;;;25.80;100.00;98942.13;6209057;23;20401;-93
2022/10/06 14:26:54;;;;;;;10.13;1.40;;;;;;;25.11;100.00;98947.59;6209970;23;20036;-93
2022/10/06 14:29:22;;;;;;;9.63;1.60;;;;;;;26.08;100.00;98935.72;6209072;23;20036;-93
2022/10/06 14:31:48;;;;;;;9.13;1.42;;;;;;;25.74;100.00;98946.06;6208816;23;20044;-93
2022/10/06 14:34:16;;;;;;;9.85;1.50;;;;;;;27.22;100.00;98948.03;6210512;23;20295;-93
2022/10/06 14:37:01;;;;;;;7.15;1.20;;;;;;;24.40;100.00;98942.31;6210358;23;20096;-94
2022/10/06 14:39:33;;;;;;;8.20;1.40;;;;;;;25.47;100.00;98925.63;6209606;23;20019;-94
2022/10/06 14:41:58;;;;;;;7.30;1.30;;;;;;;26.44;100.00;98943.91;6210157;23;20219;-94
2022/10/06 14:44:33;;;;;;;8.65;1.52;;;;;;;23.91;100.00;98948.03;6210196;23;20438;-93
2022/10/06 14:47:08;;;;;;;10.27;1.60;;;;;;;24.95;100.00;98945.09;6207804;23;20019;-92
2022/10/06 14:52:41;;;;;;;9.85;1.30;;;;;;;24.35;100.00;98947.09;6211738;23;20040;-94